This is the latest recevied weather packets stored in our database for station/object OH6HPS. If no packets are shown the sender has not sent any weather packets the latest 10 day(s).
| Time | Temp. | Humidity | Pressure | Rain* | Wind** | Luminosity | Snow |
|---|---|---|---|---|---|---|---|
| 1788516962 | 15.56° C | 73% | 998 hPa | 0.51 mm | - | 44 W/m² | - |
| 1788515762 | 20.56° C | 52% | 997.4 hPa | 0 mm | - | 111 W/m² | - |
| 1788514563 | 20.56° C | 58% | 997.5 hPa | 0 mm | - | 718 W/m² | - |
| 1788513964 | 20° C | 57% | 997.6 hPa | 0 mm | - | 628 W/m² | - |
| 1788513363 | 19.44° C | 60% | 997.4 hPa | 0 mm | - | 579 W/m² | - |
| 1788512763 | 19.44° C | 61% | 997.5 hPa | 0 mm | - | 550 W/m² | - |
| 1788512163 | 18.89° C | 62% | 997.6 hPa | 0 mm | - | 519 W/m² | - |
| 1788510963 | 18.33° C | 61% | 997.9 hPa | 0 mm | - | 514 W/m² | - |
| 1788510362 | 18.33° C | 65% | 997.9 hPa | 0 mm | - | 503 W/m² | - |
| 1788509763 | 18.33° C | 66% | 997.9 hPa | 0 mm | - | 487 W/m² | - |
| 1788509163 | 17.78° C | 70% | 998 hPa | 0 mm | - | 477 W/m² | - |
| 1788508563 | 17.78° C | 75% | 998 hPa | 0 mm | - | 461 W/m² | - |
| 1788507363 | 16.67° C | 80% | 998.1 hPa | 0 mm | - | 427 W/m² | - |
| 1788506763 | 15.56° C | 84% | 998.1 hPa | 0 mm | - | 412 W/m² | - |
| 1788506162 | 15° C | 87% | 998.2 hPa | 0 mm | - | 392 W/m² | - |
| 1788505563 | 14.44° C | 91% | 998.3 hPa | 0 mm | - | 369 W/m² | - |
| 1788504963 | 13.33° C | 97% | 998.3 hPa | 0 mm | - | 352 W/m² | - |
| 1788503762 | 12.78° C | 97% | 998.4 hPa | 0 mm | - | 313 W/m² | - |
| 1788503163 | 12.22° C | 97% | 998.5 hPa | 0 mm | - | 287 W/m² | - |
| 1788502562 | 11.67° C | 97% | 998.7 hPa | 0 mm | - | 267 W/m² | - |
| 1788501963 | 11.11° C | 97% | 998.8 hPa | 0 mm | - | 246 W/m² | - |
| 1788501363 | 10.56° C | 97% | 998.9 hPa | 0 mm | - | 225 W/m² | - |
| 1788500763 | 10° C | 97% | 998.9 hPa | 0 mm | - | 206 W/m² | - |
| 1788500163 | 9.44° C | 97% | 998.8 hPa | 0 mm | - | 76 W/m² | - |
| 1788499562 | 8.33° C | 97% | 998.9 hPa | 0 mm | - | 32 W/m² | - |
* Rain latest hour (hover to see other rain measurements)
** Current wind speed in m/s (hover to see current wind gust speed)